• Join FlightAware (Why Join?)
  • Login
  • US Flag 
11:36PM EDT


 

Airport Tracker/Info


-or-


 

Live Flight TrackerFlight Track Log ✈ SWA1451 ✈ 06-Oct-2013 ✈ KMDW - KCMH

Flight Track Log - Related Links

Times and Time Zones

All times are in EDT time to prevent confusion due to time zone crossing. See the SWA1451 flight status page for this flight to view local times or setup timezone preferences in your user account.

Time Position Orientation Groundspeed Altitude Reporting Facility
EDT Latitude Longitude Course Direction KTS MPH feet Rate Location/Type
05:13PM 41.7761 -87.7878 90° East 162 186 2,400  Level Chicago Center
05:14PM 41.8189 -87.7622 24° Northeast 242 278 3,100 1,380 Climbing Chicago Center
05:16PM 41.8100 -87.6747 98° East 236 272 5,300 2,760 Climbing Chicago Center
05:17PM 41.8011 -87.5706 96° East 270 311 8,900 3,300 Climbing Chicago Center
05:18PM 41.7969 -87.4569 93° East 301 346 12,200 3,360 Climbing Chicago Center
05:19PM 41.5946 -87.1911 90° East  Level Estimated
05:19PM 41.7947 -87.2981 91° East 347 399 16,000  Level Chicago Center
05:20PM 41.7908 -87.1594 92° East 368 423 18,900 1,440 Climbing Chicago Center
05:21PM 41.7872 -87.0164 92° East 380 437 19,000 360 Climbing Chicago Center
05:22PM 41.7847 -86.8750 91° East 382 440 19,700 1,140 Climbing Chicago Center
05:23PM 41.7794 -86.7275 93° East 392 451 21,400 1,980 Climbing Chicago Center
05:24PM 41.7753 -86.5739 92° East 405 466 23,800 1,980 Climbing Chicago Center
05:25PM 41.7706 -86.4161 92° East 423 487 25,500 2,280 Climbing Chicago Center
05:26PM 41.7494 -86.2278 98° East 412 474 28,600 1,680 Climbing Chicago Center
05:27PM 41.6842 -86.1208 129° Southeast 373 429 29,000 180 Climbing Chicago Center
05:28PM 41.6200 -86.0128 128° Southeast 373 429 29,000  Level Chicago Center
05:29PM 41.5556 -85.9050 129° Southeast 375 432 29,000  Level Chicago Center
05:30PM 41.4908 -85.7972 129° Southeast 376 433 29,000  Level Chicago Center
05:31PM 41.4111 -85.6694 130° Southeast 378 435 29,000  Level Chicago Center
05:32PM 41.3453 -85.5617 129° Southeast 381 438 29,000  Level Chicago Center
05:33PM 41.2792 -85.4542 129° Southeast 381 438 29,000  Level Chicago Center
05:34PM 41.2122 -85.3467 130° Southeast 380 437 29,000 -120 Level Chicago Center
05:35PM 41.1331 -85.2189 129° Southeast 377 434 28,800 -900 Descending Chicago Center
05:36PM 41.0692 -85.1186 130° Southeast 367 422 27,200 -1,740 Descending Chicago Center
05:37PM 41.0092 -85.0222 130° Southeast 349 402 25,300 -1,500 Descending Chicago Center
05:38PM 40.9492 -84.9283 130° Southeast 339 390 24,200 -1,020 Descending Chicago Center
05:39PM 40.8872 -84.8300 130° Southeast 345 397 23,200 -600 Descending Chicago Center
05:40PM 40.8356 -84.7214 122° Southeast 355 409 23,000 -120 Descending Chicago Center
05:41PM 40.7894 -84.5706 112° Southeast 369 425 23,000  Level Chicago Center
05:42PM 40.7697 -84.5072 112° Southeast 374 430 23,000 -420 Level Indianapolis Center
05:43PM 40.7308 -84.3803 112° Southeast 374 430 22,400 -1,260 Descending Indianapolis Center
05:44PM 40.6839 -84.2328 113° Southeast 366 421 20,500 -1,860 Descending Indianapolis Center
05:45PM 40.6458 -84.1106 112° Southeast 362 417 18,600 -2,040 Descending Indianapolis Center
05:46PM 40.6069 -83.9886 113° Southeast 362 417 16,400 -2,040 Descending Indianapolis Center
05:47PM 40.5603 -83.8750 118° Southeast 357 411 14,500 -1,620 Descending Indianapolis Center
05:48PM 40.5025 -83.7836 130° Southeast 331 381 13,100 -1,500 Descending Indianapolis Center
05:49PM 40.4328 -83.7733 174° South 282 325 11,500 -1,020 Descending Indianapolis Center
05:50PM 40.4483 -83.8631 283° West 289 333 11,100 -300 Descending Indianapolis Center
05:51PM 40.5156 -83.9500 315° West 284 327 11,000 -60 Descending Indianapolis Center
05:52PM 40.5708 -84.0219 315° West 282 325 11,000  Level Indianapolis Center
05:53PM 40.6250 -84.0922 315° West 275 316 11,000  Level Indianapolis Center
05:54PM 40.6800 -84.1631 316° Northwest 276 318 11,000  Level Indianapolis Center
05:55PM 40.7344 -84.2308 317° Northwest 272 313 11,000  Level Indianapolis Center
05:56PM 40.7878 -84.2986 316° Northwest 267 307 11,000  Level Indianapolis Center
05:57PM 40.8703 -84.3331 342° North 310 357 11,000  Level Indianapolis Center
05:58PM 40.8889 -84.2394 75° East 273 314 11,000  Level Indianapolis Center
06:00PM 40.8861 -84.1406 92° East 269 310 11,000  Level Indianapolis Center
06:01PM 40.8764 -84.0447 98° East 265 305 11,000  Level Indianapolis Center
06:02PM 40.8489 -83.9614 114° Southeast 251 289 11,000  Level Indianapolis Center
06:03PM 40.8083 -83.8975 130° Southeast 232 267 11,000  Level Indianapolis Center
06:04PM 40.7650 -83.8356 133° Southeast 229 264 11,000  Level Indianapolis Center
06:05PM 40.7147 -83.7614 132° Southeast 226 260 11,000  Level Indianapolis Center
06:06PM 40.6633 -83.7244 151° Southeast 216 249 11,000  Level Indianapolis Center
06:07PM 40.6072 -83.7069 167° South 206 237 11,000  Level Indianapolis Center
06:08PM 40.5506 -83.6897 167° South 209 241 11,000  Level Indianapolis Center
06:09PM 40.4931 -83.6739 168° South 211 243 11,100  Climbing Indianapolis Center
06:10PM 40.4378 -83.6561 166° South 207 238 11,100  Level Indianapolis Center
06:11PM 40.3764 -83.6856 200° South 194 223 11,100  Level Indianapolis Center
06:12PM 40.3267 -83.7128 203° Southwest 194 223 11,100  Level Indianapolis Center
06:13PM 40.2764 -83.7392 202° Southwest 195 224 11,100  Level Indianapolis Center
06:14PM 40.2269 -83.7681 204° Southwest 196 226 11,100  Level Indianapolis Center
06:15PM 40.1844 -83.7914 203° Southwest 196 226 11,100  Level Indianapolis Center
06:15PM 40.1767 -83.7947 198° South 195 224 11,100  Level Indianapolis Center
06:16PM 40.1267 -83.8014 186° South 214 246 11,100  Level Indianapolis Center
06:17PM 40.1569 -83.6906 70° East 295 339 11,100  Level Indianapolis Center
06:18PM 40.1914 -83.6200 57° Northeast 298 343 11,100  Level Indianapolis Center
06:18PM 40.2017 -83.5972 59° Northeast 299 344 11,100 -120 Level Indianapolis Center
06:19PM 40.2342 -83.5283 58° Northeast 297 342 11,000 -240 Descending Indianapolis Center
06:19PM 40.2447 -83.5061 58° Northeast 297 342 10,900 -1,020 Descending Indianapolis Center
06:20PM 40.2744 -83.4392 60° Northeast 284 327 10,000 -1,020 Descending Indianapolis Center
06:20PM 40.2856 -83.4178 56° Northeast 286 329 9,900 -1,020 Descending Indianapolis Center
06:21PM 40.3228 -83.3539 53° Northeast 278 320 9,000 -1,020 Descending Indianapolis Center
06:21PM 40.3325 -83.3367 53° Northeast 280 322 8,900 -1,020 Descending Indianapolis Center
06:22PM 40.3625 -83.2700 59° Northeast 273 314 8,000 -1,080 Descending Indianapolis Center
06:22PM 40.3686 -83.2514 67° East 272 313 7,800 -1,200 Descending Indianapolis Center
06:23PM 40.3633 -83.1961 97° East 249 287 6,900 -1,200 Descending Indianapolis Center
06:23PM 40.3428 -83.1828 154° Southeast 250 288 6,600 -1,320 Descending Indianapolis Center
06:24PM 40.3086 -83.1758 171° South 214 246 5,700 -1,560 Descending Indianapolis Center
06:24PM 40.2694 -83.1650 168° South 224 258 5,000 -1,380 Descending Indianapolis Center
06:25PM 40.2494 -83.1581 165° South 231 266 4,500 -1,080 Descending Indianapolis Center
06:25PM 40.2069 -83.1431 165° South 229 264 3,900 -1,020 Descending Indianapolis Center
06:26PM 40.1881 -83.1397 172° South 220 253 3,500 -720 Descending Indianapolis Center
06:27PM 40.1294 -83.1383 179° South 201 231 3,000 -240 Descending Indianapolis Center
06:27PM 40.0953 -83.1442 187° South 203 234 3,100  Climbing Indianapolis Center
06:28PM 40.0783 -83.1464 186° South 180 207 3,000  Descending Indianapolis Center
06:28PM 40.0442 -83.1342 165° South 199 229 3,100  Climbing Indianapolis Center
06:29PM 40.0233 -83.1264 164° South 194 223 3,000 -420 Descending Indianapolis Center
06:30PM 40.0019 -83.0656 115° Southeast 225 259 2,700 -600 Descending Indianapolis Center
06:31PM 39.9983 -82.9939 94° East 193 222 2,000 -660 Descending Indianapolis Center
06:32PM 39.9950 -82.9383 94° East 181 208 1,400 -840 Descending Indianapolis Center
06:32PM 39.9956 -82.9361 72° East 155 178 1,200 -240 Descending Indianapolis Center
06:33PM 39.9914 -82.8836 96° East 176 203 1,200  Level Indianapolis Center